createdAt,value
2023-03-26T00:00:09.483Z,9.20
2023-03-26T00:01:23.845Z,9.10
2023-03-26T00:02:32.631Z,9.00
2023-03-26T00:03:37.829Z,9.00
2023-03-26T00:04:43.142Z,8.90
2023-03-26T00:05:48.413Z,8.90
2023-03-26T00:06:54.329Z,8.70
2023-03-26T00:07:57.680Z,8.80
2023-03-26T00:09:03.613Z,8.30
2023-03-26T00:10:09.122Z,8.70
2023-03-26T00:11:17.172Z,8.70
2023-03-26T00:12:21.788Z,8.70
2023-03-26T00:13:24.607Z,8.60
2023-03-26T00:14:29.776Z,8.60
2023-03-26T00:15:37.481Z,8.60
2023-03-26T00:16:43.214Z,9.40
2023-03-26T00:17:47.826Z,8.70
2023-03-26T00:18:51.927Z,8.70
2023-03-26T00:19:57.198Z,8.80
2023-03-26T00:21:02.969Z,8.70
2023-03-26T00:22:05.929Z,8.80
2023-03-26T00:23:11.731Z,8.70
2023-03-26T00:24:15.512Z,8.70
2023-03-26T00:25:20.443Z,8.80
2023-03-26T00:26:24.757Z,8.80
2023-03-26T00:27:29.720Z,8.90
2023-03-26T00:28:32.510Z,9.00
2023-03-26T00:29:36.268Z,9.00
2023-03-26T00:30:42.081Z,9.10
2023-03-26T00:31:48.102Z,11.40
2023-03-26T00:32:53.519Z,9.20
2023-03-26T00:33:58.318Z,8.60
2023-03-26T00:35:02.014Z,8.70
2023-03-26T00:36:10.288Z,8.60
2023-03-26T00:37:14.838Z,8.50
2023-03-26T00:38:19.133Z,8.50
2023-03-26T00:39:24.199Z,8.50
2023-03-26T00:40:30.296Z,8.50
2023-03-26T00:41:37.381Z,8.40
2023-03-26T00:42:45.765Z,8.50
2023-03-26T00:43:52.394Z,8.40
2023-03-26T00:44:58.067Z,8.40
2023-03-26T00:46:02.362Z,8.30
2023-03-26T00:47:06.533Z,8.30
2023-03-26T00:48:09.284Z,8.30
2023-03-26T00:49:15.083Z,8.30
2023-03-26T00:50:17.747Z,8.40
2023-03-26T00:51:26.192Z,8.40
2023-03-26T00:52:30.135Z,8.40
2023-03-26T00:53:35.067Z,8.50
2023-03-26T00:54:38.283Z,8.40
2023-03-26T00:55:42.920Z,8.40
2023-03-26T00:56:47.495Z,8.40
2023-03-26T00:57:51.477Z,5.20
2023-03-26T00:58:54.395Z,8.30
2023-03-26T00:59:58.680Z,8.40
2023-03-26T01:01:04.757Z,8.40
2023-03-26T01:02:10.732Z,8.40
2023-03-26T01:03:27.773Z,8.40
2023-03-26T01:04:36.291Z,8.40
2023-03-26T01:05:46.879Z,8.40
2023-03-26T01:06:51.225Z,6.30
2023-03-26T01:07:53.911Z,8.40
2023-03-26T01:09:06.516Z,8.40
2023-03-26T01:11:20.842Z,8.30
2023-03-26T01:12:35.766Z,8.30
2023-03-26T01:13:44.265Z,8.70
2023-03-26T01:14:51.960Z,8.20
2023-03-26T01:15:57.081Z,8.30
2023-03-26T01:17:04.849Z,8.20
2023-03-26T01:18:10.357Z,8.30
2023-03-26T01:19:23.422Z,8.20
2023-03-26T01:20:30.547Z,8.20
2023-03-26T01:21:35.027Z,8.30
2023-03-26T01:22:40.141Z,4.90
2023-03-26T01:23:49.315Z,8.30
2023-03-26T01:24:56.828Z,8.20
2023-03-26T01:26:11.748Z,8.30
2023-03-26T01:27:33.708Z,8.40
2023-03-26T01:28:41.631Z,8.40
2023-03-26T01:29:55.286Z,8.40
2023-03-26T01:31:13.288Z,8.40
2023-03-26T01:32:47.641Z,8.40
2023-03-26T01:34:00.618Z,8.40
2023-03-26T01:35:23.624Z,5.10
2023-03-26T01:36:39.777Z,9.00
2023-03-26T01:37:59.117Z,8.50
2023-03-26T01:39:12.101Z,8.50
2023-03-26T01:40:27.507Z,8.40
2023-03-26T01:41:39.332Z,7.70
2023-03-26T01:42:50.070Z,8.40
2023-03-26T01:44:05.308Z,8.50
2023-03-26T01:45:14.738Z,5.50
2023-03-26T01:46:22.301Z,8.60
2023-03-26T01:47:28.220Z,8.40
2023-03-26T01:48:36.464Z,8.50
2023-03-26T01:49:39.997Z,8.60
2023-03-26T01:50:44.476Z,8.60
2023-03-26T01:51:47.961Z,8.60
2023-03-26T01:52:51.908Z,8.70
2023-03-26T01:53:57.768Z,8.70
2023-03-26T01:55:03.480Z,8.80
2023-03-26T01:56:17.872Z,8.80
2023-03-26T01:57:38.120Z,8.60
2023-03-26T01:59:03.731Z,8.60
2023-03-26T02:00:24.429Z,8.60
2023-03-26T02:01:32.682Z,8.60
2023-03-26T02:02:49.241Z,8.60
2023-03-26T02:04:04.957Z,8.60
2023-03-26T02:05:18.217Z,8.40
2023-03-26T02:06:31.352Z,8.40
2023-03-26T02:07:43.965Z,8.40
2023-03-26T02:08:55.344Z,8.40
2023-03-26T02:10:06.447Z,8.30
2023-03-26T02:11:16.645Z,8.30
2023-03-26T02:12:23.416Z,8.40
2023-03-26T02:13:28.575Z,8.40
2023-03-26T02:14:32.096Z,11.90
2023-03-26T02:15:36.265Z,11.70
2023-03-26T02:16:39.194Z,8.30
2023-03-26T02:17:43.256Z,8.30
2023-03-26T02:18:51.467Z,11.60
2023-03-26T02:19:55.265Z,8.40
2023-03-26T02:20:58.040Z,8.50
2023-03-26T02:22:02.315Z,8.60
2023-03-26T02:23:08.988Z,8.60
2023-03-26T02:24:13.520Z,10.90
2023-03-26T02:25:21.674Z,8.60
2023-03-26T02:26:28.196Z,8.60
2023-03-26T02:27:45.441Z,8.70
2023-03-26T02:28:49.113Z,8.60
2023-03-26T02:29:52.930Z,8.70
2023-03-26T02:31:16.320Z,8.70
2023-03-26T02:32:20.317Z,8.60
2023-03-26T02:34:27.229Z,8.50
2023-03-26T02:35:31.017Z,9.00
2023-03-26T02:36:37.390Z,8.70
2023-03-26T02:37:42.314Z,6.20
2023-03-26T02:38:53.044Z,11.80
2023-03-26T02:41:06.616Z,8.60
2023-03-26T02:42:31.684Z,8.60
2023-03-26T02:43:34.808Z,8.60
2023-03-26T02:44:40.613Z,8.50
2023-03-26T02:46:07.525Z,8.50
2023-03-26T02:47:33.922Z,8.50
2023-03-26T02:49:01.002Z,8.50
2023-03-26T02:50:04.658Z,5.40
2023-03-26T02:51:29.104Z,8.50
2023-03-26T02:52:40.389Z,8.50
2023-03-26T02:53:44.138Z,8.40
2023-03-26T02:55:18.557Z,8.50
2023-03-26T02:56:23.436Z,8.40
2023-03-26T02:57:45.067Z,8.50
2023-03-26T02:58:53.801Z,8.30
2023-03-26T02:59:58.109Z,8.40
2023-03-26T03:01:23.834Z,8.40
2023-03-26T03:02:30.867Z,8.40
2023-03-26T03:03:43.095Z,8.40
2023-03-26T03:05:16.017Z,4.70
2023-03-26T03:06:19.967Z,8.40
2023-03-26T03:07:29.969Z,8.30
2023-03-26T03:08:37.195Z,8.40
2023-03-26T03:09:43.567Z,5.20
2023-03-26T03:11:14.813Z,8.20
2023-03-26T03:12:25.436Z,8.20
2023-03-26T03:13:31.486Z,8.30
2023-03-26T03:14:34.831Z,11.00
2023-03-26T03:15:39.184Z,8.30
2023-03-26T03:16:42.586Z,8.30
2023-03-26T03:17:48.193Z,8.30
2023-03-26T03:18:54.807Z,8.30
2023-03-26T03:19:59.722Z,12.40
2023-03-26T03:21:03.149Z,8.50
2023-03-26T03:22:06.775Z,8.20
2023-03-26T03:23:10.480Z,8.20
2023-03-26T03:24:18.665Z,8.30
2023-03-26T03:25:26.248Z,8.30
2023-03-26T03:27:42.948Z,8.20
2023-03-26T03:28:53.038Z,8.30
2023-03-26T03:29:56.439Z,8.30
2023-03-26T03:31:34.798Z,8.30
2023-03-26T03:32:41.524Z,8.20
2023-03-26T03:33:46.723Z,8.40
2023-03-26T03:34:51.383Z,8.40
2023-03-26T03:35:56.611Z,8.40
2023-03-26T03:37:02.007Z,8.30
2023-03-26T03:38:11.503Z,8.40
2023-03-26T03:39:24.198Z,8.40
2023-03-26T03:40:27.065Z,10.70
2023-03-26T03:41:31.024Z,8.40
2023-03-26T03:42:36.536Z,8.40
2023-03-26T03:43:41.861Z,8.40
2023-03-26T03:44:56.069Z,8.40
2023-03-26T03:46:19.127Z,8.50
2023-03-26T03:47:24.311Z,8.40
2023-03-26T03:48:28.136Z,8.30
2023-03-26T03:49:30.683Z,8.30
2023-03-26T03:50:36.018Z,8.50
2023-03-26T03:51:54.681Z,8.50
2023-03-26T03:53:08.826Z,8.40
2023-03-26T03:54:11.831Z,8.30
2023-03-26T03:55:24.163Z,8.30
2023-03-26T03:56:29.320Z,8.30
2023-03-26T03:58:02.425Z,8.40
2023-03-26T03:59:05.690Z,8.40
2023-03-26T04:00:15.803Z,8.40
2023-03-26T04:01:18.805Z,8.30
2023-03-26T04:02:38.187Z,8.30
2023-03-26T04:03:42.351Z,10.60
2023-03-26T04:04:50.429Z,8.20
2023-03-26T04:05:56.788Z,8.30
2023-03-26T04:07:07.185Z,8.20
2023-03-26T04:08:29.250Z,6.90
2023-03-26T04:09:32.466Z,8.20
2023-03-26T04:10:44.200Z,8.20
2023-03-26T04:12:08.703Z,8.20
2023-03-26T04:13:32.282Z,8.20
2023-03-26T04:14:54.613Z,8.10
2023-03-26T04:15:59.603Z,8.10
2023-03-26T04:17:05.510Z,8.00
2023-03-26T04:18:13.872Z,8.00
2023-03-26T04:20:24.053Z,7.90
2023-03-26T04:21:30.772Z,7.90
2023-03-26T04:22:42.044Z,8.00
2023-03-26T04:23:52.124Z,8.00
2023-03-26T04:25:16.506Z,8.10
2023-03-26T04:26:31.065Z,8.00
2023-03-26T04:27:46.643Z,8.00
2023-03-26T04:29:01.359Z,10.40
2023-03-26T04:30:10.176Z,8.10
2023-03-26T04:31:18.973Z,8.00
2023-03-26T04:32:26.796Z,8.00
2023-03-26T04:33:35.304Z,8.10
2023-03-26T04:34:39.132Z,8.10
2023-03-26T04:35:49.493Z,8.10
2023-03-26T04:36:54.848Z,8.10
2023-03-26T04:38:06.746Z,8.10
2023-03-26T04:39:17.441Z,5.30
2023-03-26T04:40:50.967Z,7.90
2023-03-26T04:42:15.424Z,7.80
2023-03-26T04:43:35.787Z,4.60
2023-03-26T04:44:54.517Z,8.00
2023-03-26T04:45:57.627Z,8.00
2023-03-26T04:47:08.816Z,8.00
2023-03-26T04:48:20.988Z,8.10
2023-03-26T04:49:25.151Z,8.00
2023-03-26T04:50:31.035Z,8.00
2023-03-26T04:51:41.866Z,8.10
2023-03-26T04:53:05.771Z,8.00
2023-03-26T04:54:38.231Z,8.00
2023-03-26T04:55:52.777Z,8.20
2023-03-26T04:57:19.854Z,8.20
2023-03-26T04:58:33.355Z,8.40
2023-03-26T04:59:37.669Z,8.40
2023-03-26T05:01:53.487Z,8.40
2023-03-26T05:03:01.728Z,8.50
2023-03-26T05:04:05.072Z,8.50
2023-03-26T05:05:12.068Z,8.50
2023-03-26T05:06:14.765Z,8.50
2023-03-26T05:07:22.671Z,8.40
2023-03-26T05:08:31.152Z,8.40
2023-03-26T05:09:39.632Z,8.30
2023-03-26T05:10:52.863Z,8.30
2023-03-26T05:12:04.475Z,11.40
2023-03-26T05:13:17.891Z,9.00
2023-03-26T05:14:25.936Z,10.00
2023-03-26T05:15:29.329Z,8.30
2023-03-26T05:16:53.361Z,8.30
2023-03-26T05:17:56.486Z,8.30
2023-03-26T05:19:09.559Z,8.30
2023-03-26T05:20:21.142Z,8.30
2023-03-26T05:21:24.863Z,10.30
2023-03-26T05:22:27.600Z,8.40
2023-03-26T05:23:53.619Z,8.40
2023-03-26T05:24:58.208Z,8.40
2023-03-26T05:26:02.244Z,8.40
2023-03-26T05:27:09.411Z,8.50
2023-03-26T05:28:13.344Z,8.60
2023-03-26T05:29:51.681Z,8.60
2023-03-26T05:30:56.567Z,8.60
2023-03-26T05:32:01.595Z,8.50
2023-03-26T05:33:05.884Z,11.50
2023-03-26T05:34:20.620Z,8.60
2023-03-26T05:35:24.654Z,8.50
2023-03-26T05:36:28.664Z,8.60
2023-03-26T05:37:59.143Z,8.60
2023-03-26T05:39:03.354Z,8.60
2023-03-26T05:40:36.351Z,8.60
2023-03-26T05:41:41.160Z,8.50
2023-03-26T05:42:45.680Z,10.70
2023-03-26T05:44:00.336Z,9.70
2023-03-26T05:45:07.181Z,8.60
2023-03-26T05:46:11.004Z,8.70
2023-03-26T05:47:15.410Z,8.60
2023-03-26T05:48:18.685Z,7.60
2023-03-26T05:49:24.636Z,8.60
2023-03-26T05:50:27.293Z,8.60
2023-03-26T05:51:35.893Z,8.60
2023-03-26T05:53:05.249Z,8.60
2023-03-26T05:54:30.244Z,8.60
2023-03-26T05:55:55.917Z,8.60
2023-03-26T05:57:18.947Z,8.50
2023-03-26T05:59:01.582Z,8.70
2023-03-26T06:00:19.749Z,8.70
2023-03-26T06:01:25.818Z,8.70
2023-03-26T06:02:58.889Z,8.70
2023-03-26T06:04:21.983Z,8.60
2023-03-26T06:05:49.521Z,8.60
2023-03-26T06:06:57.303Z,5.90
2023-03-26T06:08:03.775Z,6.60
2023-03-26T06:09:13.537Z,8.70
2023-03-26T06:10:19.025Z,8.60
2023-03-26T06:11:26.489Z,8.70
2023-03-26T06:12:29.616Z,8.60
2023-03-26T06:13:33.766Z,8.70
2023-03-26T06:14:37.239Z,8.70
2023-03-26T06:15:53.504Z,8.60
2023-03-26T06:17:03.645Z,11.00
2023-03-26T06:18:14.032Z,7.50
2023-03-26T06:19:36.146Z,8.60
2023-03-26T06:20:49.237Z,8.70
2023-03-26T06:22:01.861Z,8.80
2023-03-26T06:23:08.734Z,8.80
2023-03-26T06:24:32.177Z,8.70
2023-03-26T06:25:58.213Z,8.70
2023-03-26T06:27:20.750Z,8.90
2023-03-26T06:28:43.450Z,6.90
2023-03-26T06:30:07.863Z,8.40
2023-03-26T06:31:32.426Z,8.40
2023-03-26T06:32:59.637Z,6.80
2023-03-26T06:34:06.698Z,8.20
2023-03-26T06:35:11.382Z,8.30
2023-03-26T06:36:15.457Z,8.30
2023-03-26T06:37:19.032Z,8.30
2023-03-26T06:38:22.868Z,8.30
2023-03-26T06:39:29.033Z,8.30
2023-03-26T06:40:48.097Z,8.30
2023-03-26T06:42:02.904Z,8.30
2023-03-26T06:43:20.531Z,8.30
2023-03-26T06:44:56.934Z,8.20
2023-03-26T06:46:24.624Z,8.10
2023-03-26T06:47:47.390Z,8.10
2023-03-26T06:49:10.008Z,8.20
2023-03-26T06:50:19.840Z,8.10
2023-03-26T06:51:46.672Z,6.80
2023-03-26T06:52:55.430Z,8.20
2023-03-26T06:54:08.548Z,8.20
2023-03-26T06:55:38.774Z,8.20
2023-03-26T06:57:02.471Z,8.20
2023-03-26T06:58:23.765Z,8.30
2023-03-26T06:59:46.038Z,8.10
2023-03-26T07:01:28.785Z,8.10
2023-03-26T07:03:04.025Z,8.20
2023-03-26T07:04:40.650Z,8.30
2023-03-26T07:06:03.396Z,8.30
2023-03-26T07:07:27.732Z,8.40
2023-03-26T07:08:50.048Z,8.60
2023-03-26T07:10:13.233Z,7.40
2023-03-26T07:11:40.961Z,9.00
2023-03-26T07:13:05.096Z,9.10
2023-03-26T07:14:30.511Z,9.20
2023-03-26T07:16:00.689Z,11.20
2023-03-26T07:17:40.264Z,9.50
2023-03-26T07:18:55.718Z,9.50
2023-03-26T07:20:03.950Z,9.50
2023-03-26T07:21:08.448Z,9.60
2023-03-26T07:22:21.036Z,9.70
2023-03-26T07:23:59.768Z,9.70
2023-03-26T07:25:17.173Z,13.20
2023-03-26T07:26:35.901Z,9.70
2023-03-26T07:28:02.387Z,9.80
2023-03-26T07:29:36.998Z,9.80
2023-03-26T07:31:05.735Z,9.90
2023-03-26T07:32:49.228Z,10.00
2023-03-26T07:34:36.221Z,13.30
2023-03-26T07:36:14.757Z,9.90
2023-03-26T07:37:54.339Z,9.80
2023-03-26T07:39:41.301Z,9.80
2023-03-26T07:41:11.758Z,9.80
2023-03-26T07:42:47.835Z,9.80
2023-03-26T07:44:43.812Z,9.70
2023-03-26T07:45:50.612Z,9.60
2023-03-26T07:47:26.292Z,9.60
2023-03-26T07:48:50.010Z,9.60
2023-03-26T07:50:20.579Z,9.50
2023-03-26T07:51:45.155Z,9.60
2023-03-26T07:53:09.458Z,9.60
2023-03-26T07:54:27.502Z,9.50
2023-03-26T07:55:58.057Z,9.40
2023-03-26T07:57:28.634Z,9.30
2023-03-26T07:59:12.049Z,6.30
2023-03-26T08:01:00.993Z,9.30
2023-03-26T08:02:37.051Z,9.40
2023-03-26T08:04:24.199Z,9.50
2023-03-26T08:05:59.073Z,9.50
2023-03-26T08:07:24.849Z,12.10
2023-03-26T08:08:58.014Z,9.60
2023-03-26T08:10:29.397Z,9.50
2023-03-26T08:11:49.861Z,9.60
2023-03-26T08:13:03.667Z,9.70
2023-03-26T08:14:26.799Z,9.80
2023-03-26T08:15:39.260Z,9.70
2023-03-26T08:16:52.730Z,9.70
2023-03-26T08:18:10.510Z,9.80
2023-03-26T08:19:34.554Z,9.90
2023-03-26T08:20:47.959Z,9.90
2023-03-26T08:21:56.274Z,10.00
2023-03-26T08:23:09.515Z,9.90
2023-03-26T08:24:22.989Z,10.10
2023-03-26T08:25:33.754Z,10.00
2023-03-26T08:26:47.727Z,10.00
2023-03-26T08:28:07.585Z,10.00
2023-03-26T08:29:21.996Z,9.80
2023-03-26T08:30:26.991Z,9.70
2023-03-26T08:31:39.201Z,9.70
2023-03-26T08:32:42.646Z,9.70
2023-03-26T08:33:46.303Z,9.60
2023-03-26T08:34:48.809Z,9.70
2023-03-26T08:35:55.583Z,9.80
2023-03-26T08:37:00.149Z,9.80
2023-03-26T08:38:05.593Z,9.80
2023-03-26T08:39:09.033Z,9.90
2023-03-26T08:40:15.761Z,9.90
2023-03-26T08:42:09.978Z,10.00
2023-03-26T08:44:04.145Z,10.00
2023-03-26T08:45:48.069Z,12.50
2023-03-26T08:47:26.648Z,10.00
2023-03-26T08:49:07.039Z,10.00
2023-03-26T08:51:01.790Z,10.00
2023-03-26T08:52:46.017Z,10.40
2023-03-26T08:54:23.254Z,10.40
2023-03-26T08:55:44.907Z,10.40
2023-03-26T08:56:58.466Z,14.00
2023-03-26T08:58:33.439Z,10.30
2023-03-26T09:00:16.271Z,10.40
2023-03-26T09:01:58.812Z,10.30
2023-03-26T09:03:53.150Z,10.40
2023-03-26T09:05:35.587Z,10.50
2023-03-26T09:07:06.861Z,9.90
2023-03-26T09:08:53.742Z,10.60
2023-03-26T09:10:36.701Z,6.90
2023-03-26T09:12:12.672Z,10.20
2023-03-26T09:13:48.721Z,7.20
2023-03-26T09:15:40.810Z,10.20
2023-03-26T09:17:16.271Z,10.20
2023-03-26T09:19:06.755Z,10.40
2023-03-26T09:20:54.085Z,10.60
2023-03-26T09:22:41.013Z,10.80
2023-03-26T09:24:38.735Z,9.70
2023-03-26T09:26:06.093Z,10.90
2023-03-26T09:27:30.489Z,10.80
2023-03-26T09:29:06.365Z,10.90
2023-03-26T09:30:59.564Z,10.40
2023-03-26T09:32:50.101Z,14.60
2023-03-26T09:34:02.814Z,11.20
2023-03-26T09:35:19.961Z,11.10
2023-03-26T09:36:54.166Z,12.10
2023-03-26T09:38:03.619Z,11.10
2023-03-26T09:39:17.897Z,11.20
2023-03-26T09:40:24.800Z,11.10
2023-03-26T09:41:44.832Z,11.20
2023-03-26T09:42:57.794Z,11.20
2023-03-26T09:44:46.270Z,11.20
2023-03-26T09:46:06.034Z,11.20
2023-03-26T09:47:36.024Z,11.10
2023-03-26T09:49:21.710Z,13.60
2023-03-26T09:50:44.020Z,11.00
2023-03-26T09:52:13.780Z,10.90
2023-03-26T09:53:41.108Z,10.80
2023-03-26T09:55:19.658Z,10.70
2023-03-26T09:56:36.846Z,10.60
2023-03-26T09:58:06.297Z,10.50
2023-03-26T09:59:29.747Z,10.60
2023-03-26T10:00:44.596Z,10.60
2023-03-26T10:02:00.241Z,11.10
2023-03-26T10:03:25.158Z,10.80
2023-03-26T10:04:54.406Z,10.90
2023-03-26T10:06:27.014Z,10.80
2023-03-26T10:07:53.565Z,10.90
2023-03-26T10:09:18.735Z,11.00
2023-03-26T10:10:31.900Z,10.90
2023-03-26T10:12:12.032Z,11.10
2023-03-26T10:13:26.547Z,11.20
2023-03-26T10:14:41.843Z,11.30
2023-03-26T10:16:05.720Z,11.30
2023-03-26T10:17:37.090Z,11.40
2023-03-26T10:18:59.399Z,11.60
2023-03-26T10:20:33.166Z,11.60
2023-03-26T10:21:47.058Z,11.50
2023-03-26T10:23:06.843Z,10.70
2023-03-26T10:24:42.880Z,11.20
2023-03-26T10:26:09.862Z,11.10
2023-03-26T10:27:28.323Z,11.10
2023-03-26T10:28:59.569Z,11.10
2023-03-26T10:30:31.766Z,11.30
2023-03-26T10:31:47.947Z,13.30
2023-03-26T10:33:04.082Z,11.00
2023-03-26T10:34:29.256Z,7.30
2023-03-26T10:35:49.066Z,11.20
2023-03-26T10:37:05.665Z,11.40
2023-03-26T10:38:18.073Z,14.60
2023-03-26T10:39:44.635Z,11.50
2023-03-26T10:41:05.030Z,15.30
2023-03-26T10:42:34.124Z,12.40
2023-03-26T10:44:08.570Z,11.60
2023-03-26T10:45:30.969Z,11.10
2023-03-26T10:47:15.902Z,14.70
2023-03-26T10:48:42.698Z,14.60
2023-03-26T10:50:23.301Z,10.10
2023-03-26T10:51:53.514Z,6.60
2023-03-26T10:53:05.754Z,9.90
2023-03-26T10:54:23.489Z,9.90
2023-03-26T10:55:33.431Z,9.80
2023-03-26T10:56:42.367Z,9.90
2023-03-26T10:57:51.928Z,10.30
2023-03-26T10:58:58.081Z,9.80
2023-03-26T11:00:16.765Z,9.70
2023-03-26T11:01:33.379Z,10.00
2023-03-26T11:02:44.688Z,10.10
2023-03-26T11:03:52.831Z,10.50
2023-03-26T11:05:20.203Z,10.50
2023-03-26T11:06:38.921Z,10.90
2023-03-26T11:07:56.111Z,11.40
2023-03-26T11:09:13.654Z,14.30
2023-03-26T11:10:27.737Z,11.10
2023-03-26T11:11:39.621Z,12.30
2023-03-26T11:12:56.650Z,12.50
2023-03-26T11:14:10.761Z,12.60
2023-03-26T11:15:25.287Z,12.60
2023-03-26T11:16:50.434Z,12.60
2023-03-26T11:18:06.819Z,12.50
2023-03-26T11:19:23.308Z,12.20
2023-03-26T11:20:38.707Z,12.20
2023-03-26T11:21:53.371Z,12.10
2023-03-26T11:23:10.541Z,11.90
2023-03-26T11:24:47.205Z,11.80
2023-03-26T11:26:09.527Z,11.80
2023-03-26T11:27:27.076Z,11.80
2023-03-26T11:29:03.928Z,11.90
2023-03-26T11:30:37.573Z,10.90
2023-03-26T11:31:55.348Z,12.20
2023-03-26T11:33:08.330Z,10.40
2023-03-26T11:34:17.339Z,12.30
2023-03-26T11:35:42.460Z,12.70
2023-03-26T11:36:56.568Z,12.90
2023-03-26T11:38:05.571Z,13.10
2023-03-26T11:39:16.547Z,13.20
2023-03-26T11:40:25.546Z,13.10
2023-03-26T11:41:32.649Z,16.30
2023-03-26T11:43:02.832Z,13.00
2023-03-26T11:44:16.205Z,13.00
2023-03-26T11:45:25.456Z,13.10
2023-03-26T11:46:29.149Z,9.90
2023-03-26T11:47:39.121Z,13.00
2023-03-26T11:48:46.762Z,12.90
2023-03-26T11:49:54.521Z,12.90
2023-03-26T11:51:05.865Z,12.90
2023-03-26T11:52:12.369Z,12.90
2023-03-26T11:53:20.666Z,13.00
2023-03-26T11:54:23.460Z,13.20
2023-03-26T11:55:29.355Z,13.30
2023-03-26T11:56:38.861Z,13.30
2023-03-26T11:57:49.423Z,13.30
2023-03-26T11:58:58.260Z,13.30
2023-03-26T12:00:13.643Z,13.10
2023-03-26T12:01:20.177Z,13.00
2023-03-26T12:02:32.923Z,10.50
2023-03-26T12:03:38.227Z,13.00
2023-03-26T12:04:45.982Z,13.20
2023-03-26T12:05:51.881Z,13.30
2023-03-26T12:06:57.598Z,13.60
2023-03-26T12:08:21.611Z,13.80
2023-03-26T12:09:29.659Z,13.70
2023-03-26T12:10:38.319Z,13.50
2023-03-26T12:11:45.317Z,15.40
2023-03-26T12:12:52.868Z,13.10
2023-03-26T12:14:01.873Z,13.10
2023-03-26T12:15:05.570Z,12.90
2023-03-26T12:16:15.994Z,15.20
2023-03-26T12:17:31.774Z,11.20
2023-03-26T12:18:41.755Z,12.80
2023-03-26T12:19:48.391Z,12.70
2023-03-26T12:21:05.041Z,12.50
2023-03-26T12:22:36.294Z,12.40
2023-03-26T12:23:51.812Z,12.30
2023-03-26T12:25:04.748Z,12.40
2023-03-26T12:26:17.222Z,12.50
2023-03-26T12:27:28.724Z,12.60
2023-03-26T12:28:32.971Z,12.60
2023-03-26T12:29:36.674Z,12.60
2023-03-26T12:30:45.274Z,12.80
2023-03-26T12:31:57.508Z,12.90
2023-03-26T12:33:05.687Z,12.90
2023-03-26T12:34:16.414Z,15.90
2023-03-26T12:35:27.688Z,13.10
2023-03-26T12:36:33.507Z,13.20
2023-03-26T12:37:43.754Z,13.30
2023-03-26T12:39:16.272Z,16.70
2023-03-26T12:40:31.882Z,13.70
2023-03-26T12:44:42.447Z,14.00
2023-03-26T12:44:49.094Z,14.30
2023-03-26T12:44:54.976Z,14.20
2023-03-26T12:46:44.262Z,14.20
2023-03-26T12:47:58.101Z,14.20
2023-03-26T12:48:49.542Z,14.60
2023-03-26T12:49:55.295Z,14.60
2023-03-26T12:51:09.400Z,14.70
2023-03-26T12:52:40.215Z,14.80
2023-03-26T12:54:04.538Z,14.60
2023-03-26T12:55:24.822Z,14.60
2023-03-26T12:56:38.667Z,14.50
2023-03-26T12:57:59.356Z,14.40
2023-03-26T12:59:29.486Z,12.20
2023-03-26T13:00:50.208Z,14.40
2023-03-26T13:02:02.572Z,14.40
2023-03-26T13:03:34.694Z,14.40
2023-03-26T13:05:09.690Z,14.20
2023-03-26T13:06:59.325Z,13.90
2023-03-26T13:08:25.334Z,13.90
2023-03-26T13:10:09.257Z,13.40
2023-03-26T13:11:23.050Z,13.30
2023-03-26T13:12:40.579Z,13.20
2023-03-26T13:14:05.270Z,13.10
2023-03-26T13:15:24.105Z,13.00
2023-03-26T13:16:36.661Z,12.90
2023-03-26T13:17:49.051Z,13.60
2023-03-26T13:18:58.373Z,13.10
2023-03-26T13:20:12.522Z,14.20
2023-03-26T13:21:26.792Z,13.20
2023-03-26T13:22:40.395Z,13.20
2023-03-26T13:23:55.776Z,13.10
2023-03-26T13:25:13.666Z,13.00
2023-03-26T13:26:37.616Z,13.20
2023-03-26T13:27:55.778Z,13.30
2023-03-26T13:29:10.842Z,13.40
2023-03-26T13:30:25.882Z,14.70
2023-03-26T13:31:43.332Z,13.40
2023-03-26T13:33:04.839Z,13.70
2023-03-26T13:34:23.733Z,13.80
2023-03-26T13:35:33.671Z,13.80
2023-03-26T13:36:50.010Z,13.60
2023-03-26T13:38:01.241Z,13.50
2023-03-26T13:39:27.481Z,13.50
2023-03-26T13:40:47.028Z,13.60
2023-03-26T13:42:11.183Z,13.70
2023-03-26T13:43:41.006Z,13.70
2023-03-26T13:45:05.041Z,13.60
2023-03-26T13:46:21.797Z,13.60
2023-03-26T13:47:30.547Z,13.70
2023-03-26T13:48:45.067Z,13.70
2023-03-26T13:49:55.242Z,13.60
2023-03-26T13:51:06.855Z,13.40
2023-03-26T13:52:19.100Z,13.30
2023-03-26T13:53:29.426Z,13.20
2023-03-26T13:54:40.874Z,12.70
2023-03-26T13:55:50.503Z,12.30
2023-03-26T13:57:04.711Z,12.20
2023-03-26T13:58:16.809Z,11.90
2023-03-26T13:59:30.156Z,11.90
2023-03-26T14:00:54.640Z,11.80
2023-03-26T14:02:06.397Z,11.80
2023-03-26T14:03:21.133Z,11.90
2023-03-26T14:04:35.415Z,11.70
2023-03-26T14:05:46.872Z,11.80
2023-03-26T14:06:58.715Z,11.80
2023-03-26T14:08:10.853Z,12.00
2023-03-26T14:09:23.501Z,12.20
2023-03-26T14:10:34.358Z,12.60
2023-03-26T14:12:06.049Z,12.70
2023-03-26T14:13:32.819Z,12.90
2023-03-26T14:14:46.428Z,12.80
2023-03-26T14:15:58.224Z,11.70
2023-03-26T14:17:14.745Z,11.70
2023-03-26T14:18:34.596Z,13.10
2023-03-26T14:20:23.007Z,13.30
2023-03-26T14:22:00.273Z,13.60
2023-03-26T14:23:24.679Z,13.70
2023-03-26T14:24:53.639Z,13.60
2023-03-26T14:26:09.054Z,13.70
2023-03-26T14:27:45.772Z,13.90
2023-03-26T14:29:29.723Z,14.10
2023-03-26T14:31:08.691Z,14.30
2023-03-26T14:32:29.941Z,14.40
2023-03-26T14:34:02.425Z,14.40
2023-03-26T14:35:23.569Z,14.60
2023-03-26T14:37:13.747Z,14.60
2023-03-26T14:38:56.673Z,14.70
2023-03-26T14:40:29.474Z,14.90
2023-03-26T14:41:47.988Z,14.80
2023-03-26T14:43:04.575Z,14.70
2023-03-26T14:44:48.777Z,14.50
2023-03-26T14:46:14.733Z,14.40
2023-03-26T14:47:19.774Z,14.20
2023-03-26T14:49:06.645Z,15.20
2023-03-26T14:50:42.751Z,14.00
2023-03-26T14:52:02.525Z,13.70
2023-03-26T14:53:22.881Z,13.70
2023-03-26T14:54:32.303Z,13.50
2023-03-26T14:56:12.406Z,13.60
2023-03-26T14:57:52.627Z,13.40
2023-03-26T14:59:42.746Z,13.60
2023-03-26T15:01:19.974Z,14.80
2023-03-26T15:03:04.011Z,13.40
2023-03-26T15:04:43.881Z,13.60
2023-03-26T15:06:07.775Z,16.10
2023-03-26T15:08:02.175Z,13.50
2023-03-26T15:10:00.957Z,13.30
2023-03-26T15:11:24.413Z,13.40
2023-03-26T15:12:44.885Z,13.70
2023-03-26T15:14:09.002Z,13.90
2023-03-26T15:16:02.218Z,14.00
2023-03-26T15:17:42.129Z,13.90
2023-03-26T15:19:31.325Z,14.00
2023-03-26T15:21:35.045Z,14.00
2023-03-26T15:23:29.848Z,13.90
2023-03-26T15:25:21.360Z,13.50
2023-03-26T15:27:12.067Z,13.60
2023-03-26T15:28:57.446Z,13.20
2023-03-26T15:30:43.868Z,13.20
2023-03-26T15:32:15.959Z,13.30
2023-03-26T15:33:47.989Z,13.30
2023-03-26T15:35:28.807Z,13.90
2023-03-26T15:37:34.445Z,13.20
2023-03-26T15:39:17.505Z,13.10
2023-03-26T15:40:38.140Z,13.00
2023-03-26T15:41:53.897Z,13.20
2023-03-26T15:43:10.269Z,13.20
2023-03-26T15:44:50.795Z,13.20
2023-03-26T15:46:26.518Z,13.10
2023-03-26T15:47:51.212Z,12.70
2023-03-26T15:49:11.991Z,12.50
2023-03-26T15:50:36.784Z,12.40
2023-03-26T15:51:53.748Z,12.80
2023-03-26T15:53:11.182Z,12.40
2023-03-26T15:54:26.062Z,12.40
2023-03-26T15:55:36.772Z,12.40
2023-03-26T15:56:59.123Z,12.40
2023-03-26T15:58:11.414Z,12.70
2023-03-26T15:59:37.253Z,12.50
2023-03-26T16:00:55.756Z,12.60
2023-03-26T16:02:18.838Z,12.70
2023-03-26T16:03:36.067Z,12.90
2023-03-26T16:04:50.390Z,13.00
2023-03-26T16:06:28.554Z,13.10
2023-03-26T16:07:49.973Z,13.10
2023-03-26T16:09:25.812Z,13.20
2023-03-26T16:10:41.443Z,13.10
2023-03-26T16:11:54.835Z,12.90
2023-03-26T16:13:21.837Z,13.00
2023-03-26T16:14:45.834Z,13.20
2023-03-26T16:15:56.522Z,13.10
2023-03-26T16:17:05.524Z,13.50
2023-03-26T16:18:34.474Z,13.10
2023-03-26T16:19:52.464Z,13.10
2023-03-26T16:21:05.435Z,13.10
2023-03-26T16:22:16.583Z,13.10
2023-03-26T16:23:29.987Z,13.20
2023-03-26T16:24:36.702Z,13.20
2023-03-26T16:25:58.413Z,13.20
2023-03-26T16:27:35.267Z,13.20
2023-03-26T16:29:18.138Z,13.30
2023-03-26T16:30:30.669Z,13.40
2023-03-26T16:31:38.405Z,13.50
2023-03-26T16:32:49.064Z,13.50
2023-03-26T16:34:00.249Z,12.30
2023-03-26T16:35:25.913Z,11.10
2023-03-26T16:36:34.615Z,13.10
2023-03-26T16:37:50.289Z,13.70
2023-03-26T16:39:20.173Z,13.60
2023-03-26T16:40:49.736Z,13.60
2023-03-26T16:42:06.134Z,13.40
2023-03-26T16:43:41.832Z,13.40
2023-03-26T16:44:53.992Z,13.40
2023-03-26T16:46:10.154Z,13.50
2023-03-26T16:47:32.585Z,13.40
2023-03-26T16:48:51.501Z,12.00
2023-03-26T16:50:10.724Z,13.30
2023-03-26T16:51:25.200Z,13.20
2023-03-26T16:52:48.013Z,13.10
2023-03-26T16:54:02.370Z,13.80
2023-03-26T16:55:19.473Z,11.20
2023-03-26T16:56:38.712Z,12.50
2023-03-26T16:57:53.895Z,12.10
2023-03-26T16:59:03.882Z,12.20
2023-03-26T17:00:39.059Z,11.10
2023-03-26T17:01:52.286Z,12.00